Miami International Airport
KMIA : now visible

Airfield :











YOU CAN JOIN US ON...

 
LOGIN :

Register | Disclaimer

   EN    FR    IT 

 









Legend :    VFR   Marginal VFR   IFR   Intensive IFR   Very Intensive IFR
Visi :
Ceiling :
>= 8 km
>= 3000ft
5 to 8 km
1000 to 3000 ft
1500m to 5 km
500 to 1000 ft
800 to 1500m
200 to 500 ft
< 800m
< 200 ft
Symbols :   Thunderstorms  Fog  Heavy snow  Heavy precipitations  Wind > 20 kt






- Airport Elevation : 8 ft
- IATA code : MIA


KMIA - Miami International

CURRENT METAR :
  • 120353Z 09011KT 7SM FEW011 BKN018CB OVC080 24/21 A3020 RMK AO2 RAB38E51 SLP227 VIS E 1 CB ALQDS MOV SW P0000 T02390206

EXPIRED METARs :
  • 120253Z 02005KT 10SM SCT020CB SCT100 24/22 A3019 RMK AO2 SLP225 CB NE-SE-SW MOV W T02440217 51016
  • 120153Z 35003KT 10SM BKN019CB BKN100 25/21 A3019 RMK AO2 SLP222 CB OHD MOV W T02500211

TAF KMIA
Valid from the 12 at 04:00 until the 13 at 06:00 UTC


120350Z 1204/1306 VRB03KT P6SM VCSH SCT025 BKN060
TEMPO 1204/1205 1SM +RA SCT015 BKN025 OVC050
FM121400 08008KT P6SM VCSH SCT030 BKN050
FM130200 08006KT P6SM SCT030



MET'MAP, your aeronautical weather chart ! - Copyright ORBIFLY December 2007 - Disclaimer

ORBIFLY MET'MAP TEAM :

Programming & Development : Alexandra Zaïnal
Concept & original design : Baudouin d'Aumeries
Assistance for programming : Marc-Olivier Méhu
Technical & hardware support : Manuel Goepfert

Contact : metmap@orbifly.com




SOURCES & CREDITS :

   NOAA       Earth
Advisory